sensor_id;sensor_type;location;lat;lon;timestamp;temperature;humidity
13808;DHT22;40769;51.512;5.494;2023-12-20T00:00:36;12.70;99.90
13808;DHT22;40769;51.512;5.494;2023-12-20T00:03:03;13.00;99.90
13808;DHT22;40769;51.512;5.494;2023-12-20T00:05:29;12.70;99.90
13808;DHT22;40769;51.512;5.494;2023-12-20T00:07:54;12.60;99.90
13808;DHT22;40769;51.512;5.494;2023-12-20T00:10:20;12.60;99.90
13808;DHT22;40769;51.512;5.494;2023-12-20T00:12:46;12.60;99.90
13808;DHT22;40769;51.512;5.494;2023-12-20T00:15:11;12.50;99.90
13808;DHT22;40769;51.512;5.494;2023-12-20T00:17:37;12.50;99.90
13808;DHT22;40769;51.512;5.494;2023-12-20T00:20:02;13.30;99.90
13808;DHT22;40769;51.512;5.494;2023-12-20T00:22:28;12.40;99.90
13808;DHT22;40769;51.512;5.494;2023-12-20T00:24:54;12.40;99.90
13808;DHT22;40769;51.512;5.494;2023-12-20T00:27:19;12.40;99.90
13808;DHT22;40769;51.512;5.494;2023-12-20T00:29:45;12.30;99.90
13808;DHT22;40769;51.512;5.494;2023-12-20T00:32:13;12.30;99.90
13808;DHT22;40769;51.512;5.494;2023-12-20T00:34:39;12.30;99.90
13808;DHT22;40769;51.512;5.494;2023-12-20T00:37:05;12.20;99.90
13808;DHT22;40769;51.512;5.494;2023-12-20T00:39:31;12.20;99.90
13808;DHT22;40769;51.512;5.494;2023-12-20T00:41:58;12.20;99.90
13808;DHT22;40769;51.512;5.494;2023-12-20T00:44:23;12.80;99.90
13808;DHT22;40769;51.512;5.494;2023-12-20T00:46:49;12.30;99.90
13808;DHT22;40769;51.512;5.494;2023-12-20T00:49:14;12.30;99.90
13808;DHT22;40769;51.512;5.494;2023-12-20T00:51:40;12.50;99.90
13808;DHT22;40769;51.512;5.494;2023-12-20T00:54:06;12.30;99.90
13808;DHT22;40769;51.512;5.494;2023-12-20T00:56:31;12.40;99.90
13808;DHT22;40769;51.512;5.494;2023-12-20T00:59:00;12.30;99.90
13808;DHT22;40769;51.512;5.494;2023-12-20T01:01:25;12.30;99.90
13808;DHT22;40769;51.512;5.494;2023-12-20T01:03:51;12.30;99.90
13808;DHT22;40769;51.512;5.494;2023-12-20T01:08:46;12.20;99.90
13808;DHT22;40769;51.512;5.494;2023-12-20T01:11:12;12.10;99.90
13808;DHT22;40769;51.512;5.494;2023-12-20T01:13:37;12.10;99.90
13808;DHT22;40769;51.512;5.494;2023-12-20T01:16:03;12.10;99.90
13808;DHT22;40769;51.512;5.494;2023-12-20T01:18:31;12.10;99.90
13808;DHT22;40769;51.512;5.494;2023-12-20T01:21:02;12.10;99.90
13808;DHT22;40769;51.512;5.494;2023-12-20T01:23:28;12.00;99.90
13808;DHT22;40769;51.512;5.494;2023-12-20T01:25:54;12.10;99.90
13808;DHT22;40769;51.512;5.494;2023-12-20T01:28:19;12.00;99.90
13808;DHT22;40769;51.512;5.494;2023-12-20T01:30:45;12.00;99.90
13808;DHT22;40769;51.512;5.494;2023-12-20T01:33:11;12.50;99.90
13808;DHT22;40769;51.512;5.494;2023-12-20T01:35:36;12.00;99.90
13808;DHT22;40769;51.512;5.494;2023-12-20T01:38:02;12.00;99.90
13808;DHT22;40769;51.512;5.494;2023-12-20T01:40:28;12.00;99.90
13808;DHT22;40769;51.512;5.494;2023-12-20T01:43:01;11.90;99.90
13808;DHT22;40769;51.512;5.494;2023-12-20T01:45:27;12.00;99.90
13808;DHT22;40769;51.512;5.494;2023-12-20T01:47:54;12.00;99.90
13808;DHT22;40769;51.512;5.494;2023-12-20T01:50:21;12.00;99.90
13808;DHT22;40769;51.512;5.494;2023-12-20T01:52:47;12.20;99.90
13808;DHT22;40769;51.512;5.494;2023-12-20T01:55:14;11.90;99.90
13808;DHT22;40769;51.512;5.494;2023-12-20T01:57:45;11.80;99.90
13808;DHT22;40769;51.512;5.494;2023-12-20T02:00:12;11.80;99.90
13808;DHT22;40769;51.512;5.494;2023-12-20T02:02:40;11.70;99.90
13808;DHT22;40769;51.512;5.494;2023-12-20T02:05:06;11.60;99.90
13808;DHT22;40769;51.512;5.494;2023-12-20T02:07:32;11.50;99.90
13808;DHT22;40769;51.512;5.494;2023-12-20T02:10:00;11.50;99.90
13808;DHT22;40769;51.512;5.494;2023-12-20T02:12:26;11.40;99.90
13808;DHT22;40769;51.512;5.494;2023-12-20T02:14:52;11.30;99.90
13808;DHT22;40769;51.512;5.494;2023-12-20T02:17:19;11.30;99.90
13808;DHT22;40769;51.512;5.494;2023-12-20T02:19:45;11.30;99.90
13808;DHT22;40769;51.512;5.494;2023-12-20T02:22:11;11.20;99.90
13808;DHT22;40769;51.512;5.494;2023-12-20T02:24:38;11.40;99.90
13808;DHT22;40769;51.512;5.494;2023-12-20T02:27:06;11.20;99.90
13808;DHT22;40769;51.512;5.494;2023-12-20T02:29:33;11.20;99.90
13808;DHT22;40769;51.512;5.494;2023-12-20T02:31:58;11.80;99.90
13808;DHT22;40769;51.512;5.494;2023-12-20T02:34:24;11.20;99.90
13808;DHT22;40769;51.512;5.494;2023-12-20T02:36:50;11.20;99.90
13808;DHT22;40769;51.512;5.494;2023-12-20T02:39:16;11.20;99.90
13808;DHT22;40769;51.512;5.494;2023-12-20T02:41:42;11.20;99.90
13808;DHT22;40769;51.512;5.494;2023-12-20T02:44:07;11.60;99.90
13808;DHT22;40769;51.512;5.494;2023-12-20T02:46:33;12.50;99.90
13808;DHT22;40769;51.512;5.494;2023-12-20T02:48:58;11.30;99.90
13808;DHT22;40769;51.512;5.494;2023-12-20T02:51:24;11.30;99.90
13808;DHT22;40769;51.512;5.494;2023-12-20T02:53:50;11.30;99.90
13808;DHT22;40769;51.512;5.494;2023-12-20T02:56:16;11.30;99.90
13808;DHT22;40769;51.512;5.494;2023-12-20T02:58:42;11.30;99.90
13808;DHT22;40769;51.512;5.494;2023-12-20T03:01:07;11.30;99.90
13808;DHT22;40769;51.512;5.494;2023-12-20T03:03:33;11.30;99.90
13808;DHT22;40769;51.512;5.494;2023-12-20T03:06:00;11.30;99.90
13808;DHT22;40769;51.512;5.494;2023-12-20T03:08:25;11.30;99.90
13808;DHT22;40769;51.512;5.494;2023-12-20T03:10:51;11.30;99.90
13808;DHT22;40769;51.512;5.494;2023-12-20T03:13:20;11.50;99.90
13808;DHT22;40769;51.512;5.494;2023-12-20T03:15:45;11.20;99.90
13808;DHT22;40769;51.512;5.494;2023-12-20T03:18:11;11.20;99.90
13808;DHT22;40769;51.512;5.494;2023-12-20T03:20:37;12.60;99.90
13808;DHT22;40769;51.512;5.494;2023-12-20T03:23:03;11.10;99.90
13808;DHT22;40769;51.512;5.494;2023-12-20T03:25:29;11.10;99.90
13808;DHT22;40769;51.512;5.494;2023-12-20T03:27:55;11.10;99.90
13808;DHT22;40769;51.512;5.494;2023-12-20T03:30:20;11.10;99.90
13808;DHT22;40769;51.512;5.494;2023-12-20T03:32:47;12.10;99.90
13808;DHT22;40769;51.512;5.494;2023-12-20T03:35:15;11.00;99.90
13808;DHT22;40769;51.512;5.494;2023-12-20T03:37:40;11.00;99.90
13808;DHT22;40769;51.512;5.494;2023-12-20T03:40:06;11.00;99.90
13808;DHT22;40769;51.512;5.494;2023-12-20T03:42:32;11.00;99.90
13808;DHT22;40769;51.512;5.494;2023-12-20T03:44:57;11.10;99.90
13808;DHT22;40769;51.512;5.494;2023-12-20T03:47:23;11.20;99.90
13808;DHT22;40769;51.512;5.494;2023-12-20T03:49:48;11.20;99.90
13808;DHT22;40769;51.512;5.494;2023-12-20T03:52:14;11.50;99.90
13808;DHT22;40769;51.512;5.494;2023-12-20T03:54:40;11.40;99.90
13808;DHT22;40769;51.512;5.494;2023-12-20T03:57:07;11.40;99.90
13808;DHT22;40769;51.512;5.494;2023-12-20T03:59:37;11.40;99.90
13808;DHT22;40769;51.512;5.494;2023-12-20T04:02:03;11.80;99.90
13808;DHT22;40769;51.512;5.494;2023-12-20T04:04:29;11.50;99.90
13808;DHT22;40769;51.512;5.494;2023-12-20T04:06:55;11.50;99.90
13808;DHT22;40769;51.512;5.494;2023-12-20T04:09:20;11.60;99.90
13808;DHT22;40769;51.512;5.494;2023-12-20T04:11:46;11.70;99.90
13808;DHT22;40769;51.512;5.494;2023-12-20T04:14:12;11.60;99.90
13808;DHT22;40769;51.512;5.494;2023-12-20T04:16:37;11.60;99.90
13808;DHT22;40769;51.512;5.494;2023-12-20T04:19:04;11.70;99.90
13808;DHT22;40769;51.512;5.494;2023-12-20T04:21:30;11.80;99.90
13808;DHT22;40769;51.512;5.494;2023-12-20T04:23:56;11.90;99.90
13808;DHT22;40769;51.512;5.494;2023-12-20T04:26:21;12.00;99.90
13808;DHT22;40769;51.512;5.494;2023-12-20T04:28:47;12.10;99.90
13808;DHT22;40769;51.512;5.494;2023-12-20T04:31:13;12.10;99.90
13808;DHT22;40769;51.512;5.494;2023-12-20T04:33:39;12.20;99.90
13808;DHT22;40769;51.512;5.494;2023-12-20T04:36:04;12.30;99.90
13808;DHT22;40769;51.512;5.494;2023-12-20T04:38:30;12.30;99.90
13808;DHT22;40769;51.512;5.494;2023-12-20T04:40:56;12.40;99.90
13808;DHT22;40769;51.512;5.494;2023-12-20T04:43:22;12.40;99.90
13808;DHT22;40769;51.512;5.494;2023-12-20T04:45:59;12.40;99.90
13808;DHT22;40769;51.512;5.494;2023-12-20T04:48:25;12.30;99.90
13808;DHT22;40769;51.512;5.494;2023-12-20T04:50:51;12.30;99.90
13808;DHT22;40769;51.512;5.494;2023-12-20T04:53:16;12.10;99.90
13808;DHT22;40769;51.512;5.494;2023-12-20T04:55:42;11.90;99.90
13808;DHT22;40769;51.512;5.494;2023-12-20T04:58:07;11.80;99.90
13808;DHT22;40769;51.512;5.494;2023-12-20T05:00:33;12.40;99.90
13808;DHT22;40769;51.512;5.494;2023-12-20T05:02:58;11.60;99.90
13808;DHT22;40769;51.512;5.494;2023-12-20T05:05:24;11.60;99.90
13808;DHT22;40769;51.512;5.494;2023-12-20T05:07:50;11.80;99.90
13808;DHT22;40769;51.512;5.494;2023-12-20T05:10:15;11.70;99.90
13808;DHT22;40769;51.512;5.494;2023-12-20T05:12:41;11.70;99.90
13808;DHT22;40769;51.512;5.494;2023-12-20T05:15:07;11.70;99.90
13808;DHT22;40769;51.512;5.494;2023-12-20T05:17:33;11.80;99.90
13808;DHT22;40769;51.512;5.494;2023-12-20T05:19:58;11.80;99.90
13808;DHT22;40769;51.512;5.494;2023-12-20T05:22:24;11.90;99.90
13808;DHT22;40769;51.512;5.494;2023-12-20T05:24:50;11.90;99.90
13808;DHT22;40769;51.512;5.494;2023-12-20T05:27:15;12.00;99.90
13808;DHT22;40769;51.512;5.494;2023-12-20T05:29:41;12.10;99.90
13808;DHT22;40769;51.512;5.494;2023-12-20T05:32:07;12.20;99.90
13808;DHT22;40769;51.512;5.494;2023-12-20T05:34:32;12.30;99.90
13808;DHT22;40769;51.512;5.494;2023-12-20T05:36:58;12.30;99.90
13808;DHT22;40769;51.512;5.494;2023-12-20T05:39:24;12.40;99.90
13808;DHT22;40769;51.512;5.494;2023-12-20T05:41:49;12.30;99.90
13808;DHT22;40769;51.512;5.494;2023-12-20T05:44:15;12.30;99.90
13808;DHT22;40769;51.512;5.494;2023-12-20T05:46:41;12.40;99.90
13808;DHT22;40769;51.512;5.494;2023-12-20T05:49:07;12.40;99.90
13808;DHT22;40769;51.512;5.494;2023-12-20T05:51:32;12.70;99.90
13808;DHT22;40769;51.512;5.494;2023-12-20T05:53:58;12.50;99.90
13808;DHT22;40769;51.512;5.494;2023-12-20T05:56:24;12.60;99.90
13808;DHT22;40769;51.512;5.494;2023-12-20T05:58:49;12.70;99.90
13808;DHT22;40769;51.512;5.494;2023-12-20T06:01:15;12.70;99.90
13808;DHT22;40769;51.512;5.494;2023-12-20T06:03:42;12.70;99.90
13808;DHT22;40769;51.512;5.494;2023-12-20T06:06:09;12.60;99.90
13808;DHT22;40769;51.512;5.494;2023-12-20T06:08:35;12.50;99.90
13808;DHT22;40769;51.512;5.494;2023-12-20T06:11:01;12.40;99.90
13808;DHT22;40769;51.512;5.494;2023-12-20T06:13:27;12.30;99.90
13808;DHT22;40769;51.512;5.494;2023-12-20T06:15:55;12.30;99.90
13808;DHT22;40769;51.512;5.494;2023-12-20T06:18:21;12.20;99.90
13808;DHT22;40769;51.512;5.494;2023-12-20T06:20:46;12.20;99.90
13808;DHT22;40769;51.512;5.494;2023-12-20T06:23:12;12.00;99.90
13808;DHT22;40769;51.512;5.494;2023-12-20T06:25:38;12.20;99.90
13808;DHT22;40769;51.512;5.494;2023-12-20T06:28:04;11.80;99.90
13808;DHT22;40769;51.512;5.494;2023-12-20T06:30:30;11.80;99.90
13808;DHT22;40769;51.512;5.494;2023-12-20T06:32:58;11.70;99.90
13808;DHT22;40769;51.512;5.494;2023-12-20T06:35:24;11.90;99.90
13808;DHT22;40769;51.512;5.494;2023-12-20T06:37:50;11.40;99.90
13808;DHT22;40769;51.512;5.494;2023-12-20T06:40:16;11.80;99.90
13808;DHT22;40769;51.512;5.494;2023-12-20T06:42:41;11.20;99.90
13808;DHT22;40769;51.512;5.494;2023-12-20T06:45:07;11.60;99.90
13808;DHT22;40769;51.512;5.494;2023-12-20T06:47:33;11.10;99.90
13808;DHT22;40769;51.512;5.494;2023-12-20T06:49:59;11.00;99.90
13808;DHT22;40769;51.512;5.494;2023-12-20T06:52:25;10.90;99.90
13808;DHT22;40769;51.512;5.494;2023-12-20T06:54:50;10.90;99.90
13808;DHT22;40769;51.512;5.494;2023-12-20T06:57:16;10.90;99.90
13808;DHT22;40769;51.512;5.494;2023-12-20T06:59:42;10.90;99.90
13808;DHT22;40769;51.512;5.494;2023-12-20T07:02:08;10.90;99.90
13808;DHT22;40769;51.512;5.494;2023-12-20T07:04:34;10.80;99.90
13808;DHT22;40769;51.512;5.494;2023-12-20T07:07:00;10.80;99.90
13808;DHT22;40769;51.512;5.494;2023-12-20T07:09:26;11.90;99.90
13808;DHT22;40769;51.512;5.494;2023-12-20T07:11:52;11.40;99.90
13808;DHT22;40769;51.512;5.494;2023-12-20T07:14:18;10.70;99.90
13808;DHT22;40769;51.512;5.494;2023-12-20T07:16:43;10.70;99.90
13808;DHT22;40769;51.512;5.494;2023-12-20T07:19:09;10.80;99.90
13808;DHT22;40769;51.512;5.494;2023-12-20T07:21:34;10.90;99.90
13808;DHT22;40769;51.512;5.494;2023-12-20T07:24:00;10.90;99.90
13808;DHT22;40769;51.512;5.494;2023-12-20T07:26:26;11.00;99.90
13808;DHT22;40769;51.512;5.494;2023-12-20T07:28:51;11.10;99.90
13808;DHT22;40769;51.512;5.494;2023-12-20T07:31:17;10.90;99.90
13808;DHT22;40769;51.512;5.494;2023-12-20T07:33:43;11.40;99.90
13808;DHT22;40769;51.512;5.494;2023-12-20T07:36:08;10.90;99.90
13808;DHT22;40769;51.512;5.494;2023-12-20T07:38:34;10.90;99.90
13808;DHT22;40769;51.512;5.494;2023-12-20T07:41:00;11.20;99.90
13808;DHT22;40769;51.512;5.494;2023-12-20T07:43:25;10.80;99.90
13808;DHT22;40769;51.512;5.494;2023-12-20T07:45:51;10.80;99.90
13808;DHT22;40769;51.512;5.494;2023-12-20T07:48:17;10.80;99.90
13808;DHT22;40769;51.512;5.494;2023-12-20T07:50:42;10.80;99.90
13808;DHT22;40769;51.512;5.494;2023-12-20T07:53:08;10.80;99.90
13808;DHT22;40769;51.512;5.494;2023-12-20T07:55:34;10.90;99.90
13808;DHT22;40769;51.512;5.494;2023-12-20T07:58:00;10.90;99.90
13808;DHT22;40769;51.512;5.494;2023-12-20T08:00:26;10.90;99.90
13808;DHT22;40769;51.512;5.494;2023-12-20T08:02:52;10.90;99.90
13808;DHT22;40769;51.512;5.494;2023-12-20T08:05:18;10.90;99.90
13808;DHT22;40769;51.512;5.494;2023-12-20T08:07:43;10.90;99.90
13808;DHT22;40769;51.512;5.494;2023-12-20T08:10:09;10.90;99.90
13808;DHT22;40769;51.512;5.494;2023-12-20T08:12:35;11.00;99.90
13808;DHT22;40769;51.512;5.494;2023-12-20T08:15:02;11.00;99.90
13808;DHT22;40769;51.512;5.494;2023-12-20T08:17:27;11.00;99.90
13808;DHT22;40769;51.512;5.494;2023-12-20T08:19:53;11.00;99.90
13808;DHT22;40769;51.512;5.494;2023-12-20T08:22:19;10.90;99.90
13808;DHT22;40769;51.512;5.494;2023-12-20T08:24:44;10.90;99.90
13808;DHT22;40769;51.512;5.494;2023-12-20T08:27:10;10.90;99.90
13808;DHT22;40769;51.512;5.494;2023-12-20T08:29:36;11.00;99.90
13808;DHT22;40769;51.512;5.494;2023-12-20T08:32:02;11.20;99.90
13808;DHT22;40769;51.512;5.494;2023-12-20T08:34:27;11.20;99.90
13808;DHT22;40769;51.512;5.494;2023-12-20T08:36:53;11.40;99.90
13808;DHT22;40769;51.512;5.494;2023-12-20T08:39:19;11.70;99.90
13808;DHT22;40769;51.512;5.494;2023-12-20T08:41:45;11.50;99.90
13808;DHT22;40769;51.512;5.494;2023-12-20T08:44:10;11.40;99.90
13808;DHT22;40769;51.512;5.494;2023-12-20T08:46:38;11.40;99.90
13808;DHT22;40769;51.512;5.494;2023-12-20T08:49:04;11.50;99.90
13808;DHT22;40769;51.512;5.494;2023-12-20T08:51:30;11.50;99.90
13808;DHT22;40769;51.512;5.494;2023-12-20T08:53:56;11.50;99.90
13808;DHT22;40769;51.512;5.494;2023-12-20T08:56:21;11.60;99.90
13808;DHT22;40769;51.512;5.494;2023-12-20T08:58:47;11.60;99.90
13808;DHT22;40769;51.512;5.494;2023-12-20T09:01:13;11.70;99.90
13808;DHT22;40769;51.512;5.494;2023-12-20T09:03:39;11.70;99.90
13808;DHT22;40769;51.512;5.494;2023-12-20T09:06:05;11.70;99.90
13808;DHT22;40769;51.512;5.494;2023-12-20T09:08:32;11.60;99.90
13808;DHT22;40769;51.512;5.494;2023-12-20T09:10:57;11.60;99.90
13808;DHT22;40769;51.512;5.494;2023-12-20T09:13:26;11.60;99.90
13808;DHT22;40769;51.512;5.494;2023-12-20T09:15:55;11.60;99.90
13808;DHT22;40769;51.512;5.494;2023-12-20T09:18:21;11.90;99.90
13808;DHT22;40769;51.512;5.494;2023-12-20T09:20:46;11.90;99.90
13808;DHT22;40769;51.512;5.494;2023-12-20T09:23:20;11.50;99.90
13808;DHT22;40769;51.512;5.494;2023-12-20T09:26:14;11.50;99.90
13808;DHT22;40769;51.512;5.494;2023-12-20T09:28:40;11.50;99.90
13808;DHT22;40769;51.512;5.494;2023-12-20T09:31:06;11.50;99.90
13808;DHT22;40769;51.512;5.494;2023-12-20T09:33:32;11.50;99.90
13808;DHT22;40769;51.512;5.494;2023-12-20T09:35:58;11.60;99.90
13808;DHT22;40769;51.512;5.494;2023-12-20T09:38:23;11.70;99.90
13808;DHT22;40769;51.512;5.494;2023-12-20T09:40:49;11.70;99.90
13808;DHT22;40769;51.512;5.494;2023-12-20T09:43:24;11.80;99.90
13808;DHT22;40769;51.512;5.494;2023-12-20T09:45:56;11.80;99.90
13808;DHT22;40769;51.512;5.494;2023-12-20T09:48:23;11.80;99.90
13808;DHT22;40769;51.512;5.494;2023-12-20T09:50:52;11.70;99.90
13808;DHT22;40769;51.512;5.494;2023-12-20T09:53:18;11.80;99.90
13808;DHT22;40769;51.512;5.494;2023-12-20T09:55:48;11.60;99.90
13808;DHT22;40769;51.512;5.494;2023-12-20T09:58:15;11.60;99.90
13808;DHT22;40769;51.512;5.494;2023-12-20T10:00:40;11.60;99.90
13808;DHT22;40769;51.512;5.494;2023-12-20T10:03:06;11.50;99.90
13808;DHT22;40769;51.512;5.494;2023-12-20T10:05:34;11.60;99.90
13808;DHT22;40769;51.512;5.494;2023-12-20T10:08:00;11.60;99.90
13808;DHT22;40769;51.512;5.494;2023-12-20T10:10:38;11.70;99.90
13808;DHT22;40769;51.512;5.494;2023-12-20T10:13:06;12.30;99.90
13808;DHT22;40769;51.512;5.494;2023-12-20T10:15:35;11.80;99.90
13808;DHT22;40769;51.512;5.494;2023-12-20T10:18:02;11.80;99.90
13808;DHT22;40769;51.512;5.494;2023-12-20T10:20:29;11.80;99.90
13808;DHT22;40769;51.512;5.494;2023-12-20T10:22:56;11.80;99.90
13808;DHT22;40769;51.512;5.494;2023-12-20T10:25:21;11.80;99.90
13808;DHT22;40769;51.512;5.494;2023-12-20T10:27:47;11.90;99.90
13808;DHT22;40769;51.512;5.494;2023-12-20T10:30:14;12.00;99.90
13808;DHT22;40769;51.512;5.494;2023-12-20T10:32:40;11.90;99.90
13808;DHT22;40769;51.512;5.494;2023-12-20T10:35:06;11.90;99.90
13808;DHT22;40769;51.512;5.494;2023-12-20T10:37:38;12.00;99.90
13808;DHT22;40769;51.512;5.494;2023-12-20T10:40:05;12.00;99.90
13808;DHT22;40769;51.512;5.494;2023-12-20T10:42:32;12.10;99.90
13808;DHT22;40769;51.512;5.494;2023-12-20T10:44:59;12.10;99.90
13808;DHT22;40769;51.512;5.494;2023-12-20T10:47:25;12.20;99.90
13808;DHT22;40769;51.512;5.494;2023-12-20T10:49:52;13.00;99.90
13808;DHT22;40769;51.512;5.494;2023-12-20T10:52:19;12.30;99.90
13808;DHT22;40769;51.512;5.494;2023-12-20T10:54:48;12.30;99.90
13808;DHT22;40769;51.512;5.494;2023-12-20T10:57:14;12.40;99.90
13808;DHT22;40769;51.512;5.494;2023-12-20T10:59:43;12.20;99.90
13808;DHT22;40769;51.512;5.494;2023-12-20T11:02:11;12.20;99.90
13808;DHT22;40769;51.512;5.494;2023-12-20T11:04:55;12.20;99.90
13808;DHT22;40769;51.512;5.494;2023-12-20T11:07:36;12.10;99.90
13808;DHT22;40769;51.512;5.494;2023-12-20T11:10:29;12.10;99.90
13808;DHT22;40769;51.512;5.494;2023-12-20T11:13:08;12.10;99.90
13808;DHT22;40769;51.512;5.494;2023-12-20T11:15:38;12.10;99.90
13808;DHT22;40769;51.512;5.494;2023-12-20T11:18:05;12.10;99.90
13808;DHT22;40769;51.512;5.494;2023-12-20T11:20:41;12.10;99.90
13808;DHT22;40769;51.512;5.494;2023-12-20T11:23:11;12.20;99.90
13808;DHT22;40769;51.512;5.494;2023-12-20T11:25:51;12.20;99.90
13808;DHT22;40769;51.512;5.494;2023-12-20T11:28:21;12.30;99.90
13808;DHT22;40769;51.512;5.494;2023-12-20T11:30:52;12.30;99.90
13808;DHT22;40769;51.512;5.494;2023-12-20T11:33:22;12.30;99.90
13808;DHT22;40769;51.512;5.494;2023-12-20T11:35:48;12.40;99.90
13808;DHT22;40769;51.512;5.494;2023-12-20T11:38:15;12.20;99.90
13808;DHT22;40769;51.512;5.494;2023-12-20T11:40:43;12.50;99.90
13808;DHT22;40769;51.512;5.494;2023-12-20T11:43:09;12.20;99.90
13808;DHT22;40769;51.512;5.494;2023-12-20T11:45:36;12.10;99.90
13808;DHT22;40769;51.512;5.494;2023-12-20T11:48:02;12.10;99.90
13808;DHT22;40769;51.512;5.494;2023-12-20T11:50:28;12.00;99.90
13808;DHT22;40769;51.512;5.494;2023-12-20T11:52:55;11.90;99.90
13808;DHT22;40769;51.512;5.494;2023-12-20T11:55:24;11.90;99.90
13808;DHT22;40769;51.512;5.494;2023-12-20T11:57:51;11.90;99.90
13808;DHT22;40769;51.512;5.494;2023-12-20T12:00:18;11.70;99.90
13808;DHT22;40769;51.512;5.494;2023-12-20T12:02:43;11.80;99.90
13808;DHT22;40769;51.512;5.494;2023-12-20T12:05:19;12.10;99.90
13808;DHT22;40769;51.512;5.494;2023-12-20T12:07:45;11.90;99.90
13808;DHT22;40769;51.512;5.494;2023-12-20T12:10:11;11.90;99.90
13808;DHT22;40769;51.512;5.494;2023-12-20T12:12:36;11.90;99.90
13808;DHT22;40769;51.512;5.494;2023-12-20T12:15:02;12.00;99.90
13808;DHT22;40769;51.512;5.494;2023-12-20T12:17:28;12.00;99.90
13808;DHT22;40769;51.512;5.494;2023-12-20T12:20:05;11.90;99.90
13808;DHT22;40769;51.512;5.494;2023-12-20T12:22:31;12.10;99.90
13808;DHT22;40769;51.512;5.494;2023-12-20T12:24:59;12.20;99.90
13808;DHT22;40769;51.512;5.494;2023-12-20T12:27:34;12.40;99.90
13808;DHT22;40769;51.512;5.494;2023-12-20T12:30:04;12.50;99.90
13808;DHT22;40769;51.512;5.494;2023-12-20T12:32:30;12.50;99.90
13808;DHT22;40769;51.512;5.494;2023-12-20T12:34:56;12.50;99.90
13808;DHT22;40769;51.512;5.494;2023-12-20T12:37:22;12.50;99.90
13808;DHT22;40769;51.512;5.494;2023-12-20T12:39:49;12.40;99.90
13808;DHT22;40769;51.512;5.494;2023-12-20T12:42:15;12.40;99.90
13808;DHT22;40769;51.512;5.494;2023-12-20T12:44:41;12.40;99.90
13808;DHT22;40769;51.512;5.494;2023-12-20T12:47:06;12.40;99.90
13808;DHT22;40769;51.512;5.494;2023-12-20T12:49:33;12.40;99.90
13808;DHT22;40769;51.512;5.494;2023-12-20T12:51:59;12.40;99.90
13808;DHT22;40769;51.512;5.494;2023-12-20T12:54:25;12.50;99.90
13808;DHT22;40769;51.512;5.494;2023-12-20T12:56:51;12.50;99.90
13808;DHT22;40769;51.512;5.494;2023-12-20T12:59:18;12.70;99.90
13808;DHT22;40769;51.512;5.494;2023-12-20T13:01:44;12.60;99.90
13808;DHT22;40769;51.512;5.494;2023-12-20T13:04:09;12.80;99.90
13808;DHT22;40769;51.512;5.494;2023-12-20T13:06:38;12.70;99.90
13808;DHT22;40769;51.512;5.494;2023-12-20T13:09:04;12.60;99.90
13808;DHT22;40769;51.512;5.494;2023-12-20T13:11:30;12.70;99.90
13808;DHT22;40769;51.512;5.494;2023-12-20T13:13:57;12.70;99.90
13808;DHT22;40769;51.512;5.494;2023-12-20T13:16:23;12.60;99.90
13808;DHT22;40769;51.512;5.494;2023-12-20T13:18:50;12.50;99.90
13808;DHT22;40769;51.512;5.494;2023-12-20T13:21:15;12.40;99.90
13808;DHT22;40769;51.512;5.494;2023-12-20T13:23:42;12.40;99.90
13808;DHT22;40769;51.512;5.494;2023-12-20T13:26:08;12.40;99.90
13808;DHT22;40769;51.512;5.494;2023-12-20T13:28:33;12.40;99.90
13808;DHT22;40769;51.512;5.494;2023-12-20T13:31:02;12.30;99.90
13808;DHT22;40769;51.512;5.494;2023-12-20T13:33:28;12.30;99.90
13808;DHT22;40769;51.512;5.494;2023-12-20T13:35:53;12.30;99.90
13808;DHT22;40769;51.512;5.494;2023-12-20T13:38:19;12.30;99.90
13808;DHT22;40769;51.512;5.494;2023-12-20T13:40:45;12.40;99.90
13808;DHT22;40769;51.512;5.494;2023-12-20T13:43:10;12.50;99.90
13808;DHT22;40769;51.512;5.494;2023-12-20T13:45:50;12.70;99.90
13808;DHT22;40769;51.512;5.494;2023-12-20T13:48:17;12.60;99.90
13808;DHT22;40769;51.512;5.494;2023-12-20T13:50:49;12.70;99.90
13808;DHT22;40769;51.512;5.494;2023-12-20T13:53:15;12.60;99.90
13808;DHT22;40769;51.512;5.494;2023-12-20T13:56:12;12.60;99.90
13808;DHT22;40769;51.512;5.494;2023-12-20T13:58:38;12.60;99.90
13808;DHT22;40769;51.512;5.494;2023-12-20T14:04:05;12.60;99.90
13808;DHT22;40769;51.512;5.494;2023-12-20T14:09:54;12.50;99.90
13808;DHT22;40769;51.512;5.494;2023-12-20T14:12:20;12.40;99.90
13808;DHT22;40769;51.512;5.494;2023-12-20T14:14:46;12.40;99.90
13808;DHT22;40769;51.512;5.494;2023-12-20T14:17:11;12.40;99.90
13808;DHT22;40769;51.512;5.494;2023-12-20T14:19:37;12.40;99.90
13808;DHT22;40769;51.512;5.494;2023-12-20T14:22:03;12.40;99.90
13808;DHT22;40769;51.512;5.494;2023-12-20T14:24:29;12.40;99.90
13808;DHT22;40769;51.512;5.494;2023-12-20T14:26:55;12.30;99.90
13808;DHT22;40769;51.512;5.494;2023-12-20T14:29:21;12.30;99.90
13808;DHT22;40769;51.512;5.494;2023-12-20T14:31:47;12.30;99.90
13808;DHT22;40769;51.512;5.494;2023-12-20T14:34:14;12.30;99.90
13808;DHT22;40769;51.512;5.494;2023-12-20T14:36:40;12.40;99.90
13808;DHT22;40769;51.512;5.494;2023-12-20T14:39:05;12.30;99.90
13808;DHT22;40769;51.512;5.494;2023-12-20T14:41:31;12.30;99.90
13808;DHT22;40769;51.512;5.494;2023-12-20T14:43:57;12.30;99.90
13808;DHT22;40769;51.512;5.494;2023-12-20T14:46:22;12.40;99.90
13808;DHT22;40769;51.512;5.494;2023-12-20T14:48:48;12.40;99.90
13808;DHT22;40769;51.512;5.494;2023-12-20T14:51:15;12.50;99.90
13808;DHT22;40769;51.512;5.494;2023-12-20T14:53:41;12.50;99.90
13808;DHT22;40769;51.512;5.494;2023-12-20T14:56:08;12.50;99.90
13808;DHT22;40769;51.512;5.494;2023-12-20T14:58:33;12.50;99.90
13808;DHT22;40769;51.512;5.494;2023-12-20T15:00:59;12.50;99.90
13808;DHT22;40769;51.512;5.494;2023-12-20T15:03:25;12.50;99.90
13808;DHT22;40769;51.512;5.494;2023-12-20T15:05:50;13.40;99.90
13808;DHT22;40769;51.512;5.494;2023-12-20T15:08:16;13.00;99.90
13808;DHT22;40769;51.512;5.494;2023-12-20T15:10:42;12.50;99.90
13808;DHT22;40769;51.512;5.494;2023-12-20T15:13:07;12.50;99.90
13808;DHT22;40769;51.512;5.494;2023-12-20T15:15:33;12.80;99.90
13808;DHT22;40769;51.512;5.494;2023-12-20T15:18:00;12.60;99.90
13808;DHT22;40769;51.512;5.494;2023-12-20T15:20:26;12.60;99.90
13808;DHT22;40769;51.512;5.494;2023-12-20T15:22:51;12.70;99.90
13808;DHT22;40769;51.512;5.494;2023-12-20T15:25:18;12.70;99.90
13808;DHT22;40769;51.512;5.494;2023-12-20T15:27:48;13.00;99.90
13808;DHT22;40769;51.512;5.494;2023-12-20T15:30:18;12.80;99.90
13808;DHT22;40769;51.512;5.494;2023-12-20T15:32:44;12.80;99.90
13808;DHT22;40769;51.512;5.494;2023-12-20T15:35:10;12.80;99.90